Details for WeGo Cargo at EGSS




Go Back


Latest METAR
Local Time

EGSS 211420Z AUTO 02005KT 8000 FEW017 BKN022 OVC026 05/02 Q1026

21/02/2018, 14:53:03

Description
Results
WeGo Cargo Logo
Number of Pilots based at EGSS
2 Pilots Based here
Number of WeGo Cargo Flights Departed from EGSS
1 Flights Departed
Number of WeGo Cargo Flights Arrived at EGSS
2 Flights Arrived
Number of WeGo Cargo Schedules Departing from EGSS
17 Schedules
Number of WeGo Cargo Schedules Arriving at EGSS
17 Schedules
Number of WeGo Cargo Schedules Departing from EGSS availible today
17 Schedules Today
Number of WeGo Cargo Schedules Arriving at EGSS availible today
17 Schedules Today
Average Landing Rate at EGSS
-239 fpm
WeGo Cargo Average Landing Rate at EGSS
-181 fpm
Total Fuel Purchased at EGSS by WeGo Cargo
108.86 kgs / 239.99 lbs

Pilots Based at EGSS


Pilot ID
Pilot Name
Pilot Rank
No. of Flights
No. of Flying Hours
Ian Hart
5
12.5
Joerg Pfeiffer
32
43.15
Content